createdAt,value
2018-03-25T00:01:53.170Z,0.30
2018-03-25T00:04:21.447Z,0.30
2018-03-25T00:06:48.975Z,0.20
2018-03-25T00:09:16.490Z,0.20
2018-03-25T00:11:44.014Z,0.20
2018-03-25T00:14:12.299Z,0.10
2018-03-25T00:16:40.584Z,0.10
2018-03-25T00:19:08.102Z,0.00
2018-03-25T00:21:35.630Z,0.00
2018-03-25T00:24:03.144Z,0.00
2018-03-25T00:26:31.454Z,-0.10
2018-03-25T00:28:58.966Z,-0.10
2018-03-25T00:31:26.509Z,-0.10
2018-03-25T00:33:54.018Z,-0.10
2018-03-25T00:36:21.522Z,-0.20
2018-03-25T00:38:49.047Z,-0.20
2018-03-25T00:41:16.565Z,-0.20
2018-03-25T00:43:44.098Z,-0.30
2018-03-25T00:46:11.615Z,-0.30
2018-03-25T00:48:39.905Z,-0.40
2018-03-25T00:51:07.415Z,-0.50
2018-03-25T00:53:34.942Z,-0.50
2018-03-25T00:56:02.459Z,-0.50
2018-03-25T00:58:30.757Z,-0.50
2018-03-25T01:00:58.272Z,-0.60
2018-03-25T01:03:25.796Z,-0.60
2018-03-25T01:05:53.298Z,-0.50
2018-03-25T01:08:20.837Z,-0.60
2018-03-25T01:10:48.346Z,-0.60
2018-03-25T01:13:16.643Z,-0.60
2018-03-25T01:15:55.858Z,-0.70
2018-03-25T01:18:24.157Z,-0.70
2018-03-25T01:20:51.691Z,-0.80
2018-03-25T01:23:19.992Z,-0.70
2018-03-25T01:25:47.501Z,-0.80
2018-03-25T01:28:15.034Z,-0.80
2018-03-25T01:30:42.543Z,-0.70
2018-03-25T01:33:10.834Z,-0.80
2018-03-25T01:35:39.111Z,-0.80
2018-03-25T01:38:07.425Z,-0.80
2018-03-25T01:40:34.947Z,-0.90
2018-03-25T01:43:03.237Z,-0.80
2018-03-25T01:45:30.771Z,-0.90
2018-03-25T01:47:59.049Z,-0.80
2018-03-25T01:50:26.587Z,-0.90
2018-03-25T01:52:54.105Z,-0.90
2018-03-25T01:55:21.635Z,-0.90
2018-03-25T01:57:49.918Z,-0.90
2018-03-25T02:00:18.223Z,-0.90
2018-03-25T02:02:45.738Z,-0.90
2018-03-25T02:05:13.267Z,-0.90
2018-03-25T02:07:40.773Z,-0.90
2018-03-25T02:10:09.062Z,-1.00
2018-03-25T02:12:36.582Z,-1.10
2018-03-25T02:15:04.109Z,-1.00
2018-03-25T02:17:31.651Z,-1.00
2018-03-25T02:19:59.184Z,-1.10
2018-03-25T02:22:27.463Z,-1.10
2018-03-25T02:24:55.763Z,-1.10
2018-03-25T02:27:23.266Z,-1.10
2018-03-25T02:29:50.799Z,-1.10
2018-03-25T02:32:18.326Z,-1.10
2018-03-25T02:34:46.629Z,-1.10
2018-03-25T02:37:14.143Z,-1.10
2018-03-25T02:39:41.676Z,-1.10
2018-03-25T02:42:09.194Z,-1.10
2018-03-25T02:44:36.707Z,-1.10
2018-03-25T02:47:04.227Z,-1.10
2018-03-25T02:49:31.741Z,-1.10
2018-03-25T02:51:59.281Z,-1.20
2018-03-25T02:54:26.792Z,-1.20
2018-03-25T02:56:55.082Z,-1.20
2018-03-25T02:59:22.602Z,-1.20
2018-03-25T03:01:50.129Z,-1.20
2018-03-25T03:04:17.656Z,-1.20
2018-03-25T03:06:45.952Z,-1.20
2018-03-25T03:09:13.488Z,-1.30
2018-03-25T03:11:41.789Z,-1.30
2018-03-25T03:14:09.299Z,-1.30
2018-03-25T03:16:36.828Z,-1.30
2018-03-25T03:19:04.339Z,-1.30
2018-03-25T03:21:32.630Z,-1.30
2018-03-25T03:24:00.911Z,-1.30
2018-03-25T03:26:28.440Z,-1.30
2018-03-25T03:28:55.950Z,-1.30
2018-03-25T03:31:23.485Z,-1.30
2018-03-25T03:33:51.007Z,-1.40
2018-03-25T03:36:18.538Z,-1.40
2018-03-25T03:38:46.047Z,-1.40
2018-03-25T03:41:14.351Z,-1.50
2018-03-25T03:43:41.870Z,-1.50
2018-03-25T03:46:09.399Z,-1.50
2018-03-25T03:48:36.902Z,-1.50
2018-03-25T03:51:05.200Z,-1.50
2018-03-25T03:53:33.530Z,-1.60
2018-03-25T03:56:01.007Z,-1.60
2018-03-25T03:58:28.530Z,-1.60
2018-03-25T04:00:56.042Z,-1.60
2018-03-25T04:03:24.338Z,-1.60
2018-03-25T04:05:52.618Z,-1.60
2018-03-25T04:08:20.150Z,-1.70
2018-03-25T04:10:47.663Z,-1.60
2018-03-25T04:13:15.194Z,-1.60
2018-03-25T04:15:42.730Z,-1.70
2018-03-25T04:18:11.766Z,-1.80
2018-03-25T04:20:39.275Z,-1.80
2018-03-25T04:23:06.798Z,-1.80
2018-03-25T04:25:34.320Z,-1.80
2018-03-25T04:28:02.618Z,-1.70
2018-03-25T04:30:30.154Z,-1.80
2018-03-25T04:32:58.458Z,-1.80
2018-03-25T04:35:25.966Z,-1.80
2018-03-25T04:37:53.494Z,-1.80
2018-03-25T04:40:21.003Z,-1.80
2018-03-25T04:42:49.303Z,-1.80
2018-03-25T04:45:16.806Z,-1.90
2018-03-25T04:47:44.338Z,-1.90
2018-03-25T04:50:11.848Z,-1.90
2018-03-25T04:52:39.384Z,-1.90
2018-03-25T04:55:06.893Z,-1.90
2018-03-25T04:57:35.188Z,-1.90
2018-03-25T05:00:02.700Z,-1.90
2018-03-25T05:02:30.234Z,-1.90
2018-03-25T05:04:57.742Z,-1.90
2018-03-25T05:07:26.038Z,-2.00
2018-03-25T05:09:53.549Z,-2.10
2018-03-25T05:12:21.054Z,-2.00
2018-03-25T05:14:48.591Z,-2.00
2018-03-25T05:17:16.175Z,-2.10
2018-03-25T05:19:44.468Z,-2.10
2018-03-25T05:22:11.988Z,-2.20
2018-03-25T05:24:39.514Z,-2.10
2018-03-25T05:27:07.030Z,-2.20
2018-03-25T05:29:34.562Z,-2.20
2018-03-25T05:32:02.081Z,-2.20
2018-03-25T05:34:29.614Z,-2.10
2018-03-25T05:36:57.126Z,-2.10
2018-03-25T05:39:24.654Z,-2.10
2018-03-25T05:41:52.163Z,-2.10
2018-03-25T05:44:19.690Z,-2.00
2018-03-25T05:46:47.206Z,-2.10
2018-03-25T05:49:15.504Z,-2.00
2018-03-25T05:51:43.018Z,-2.00
2018-03-25T05:54:11.322Z,-1.80
2018-03-25T05:56:39.598Z,-1.80
2018-03-25T05:59:07.882Z,-1.80
2018-03-25T06:01:36.154Z,-1.70
2018-03-25T06:04:04.452Z,-1.70
2018-03-25T06:06:31.975Z,-1.70
2018-03-25T06:08:59.526Z,-1.50
2018-03-25T06:11:27.041Z,-1.50
2018-03-25T06:13:54.574Z,-1.40
2018-03-25T06:16:22.852Z,-1.20
2018-03-25T06:18:51.131Z,-1.10
2018-03-25T06:21:19.419Z,-1.00
2018-03-25T06:23:46.930Z,-1.10
2018-03-25T06:26:14.471Z,-1.00
2018-03-25T06:28:41.982Z,-0.90
2018-03-25T06:31:09.518Z,-0.80
2018-03-25T06:33:37.036Z,-0.60
2018-03-25T06:36:04.563Z,-0.50
2018-03-25T06:38:32.842Z,-0.30
2018-03-25T06:41:01.144Z,-0.20
2018-03-25T06:43:28.660Z,-0.20
2018-03-25T06:45:56.951Z,0.10
2018-03-25T06:48:25.224Z,0.20
2018-03-25T06:50:52.742Z,0.20
2018-03-25T06:53:20.247Z,0.40
2018-03-25T06:55:48.539Z,0.60
2018-03-25T06:58:16.811Z,0.80
2018-03-25T07:00:45.105Z,0.90
2018-03-25T07:03:12.616Z,0.80
2018-03-25T07:05:40.131Z,1.00
2018-03-25T07:08:07.638Z,1.10
2018-03-25T07:10:35.172Z,1.30
2018-03-25T07:13:02.680Z,1.40
2018-03-25T07:15:30.980Z,1.70
2018-03-25T07:17:58.493Z,1.60
2018-03-25T07:20:26.014Z,1.90
2018-03-25T07:22:53.509Z,2.00
2018-03-25T07:25:21.030Z,2.20
2018-03-25T07:27:48.532Z,2.30
2018-03-25T07:30:16.041Z,2.50
2018-03-25T07:32:43.570Z,2.70
2018-03-25T07:35:11.838Z,3.00
2018-03-25T07:37:39.392Z,2.90
2018-03-25T07:40:06.882Z,3.20
2018-03-25T07:42:35.203Z,3.60
2018-03-25T07:45:02.756Z,3.60
2018-03-25T07:47:30.270Z,3.80
2018-03-25T07:49:58.597Z,4.10
2018-03-25T07:52:26.090Z,4.10
2018-03-25T07:54:53.610Z,4.30
2018-03-25T07:57:21.137Z,4.40
2018-03-25T07:59:49.412Z,4.70
2018-03-25T08:02:17.702Z,4.90
2018-03-25T08:04:45.987Z,5.10
2018-03-25T08:07:13.575Z,5.00
2018-03-25T08:09:41.095Z,5.30
2018-03-25T08:12:08.635Z,5.50
2018-03-25T08:14:36.915Z,5.80
2018-03-25T08:17:04.451Z,5.70
2018-03-25T08:19:31.980Z,6.00
2018-03-25T08:21:59.563Z,6.10
2018-03-25T08:24:27.074Z,6.20
2018-03-25T08:26:54.631Z,6.30
2018-03-25T08:29:22.908Z,6.60
2018-03-25T08:31:50.464Z,6.50
2018-03-25T08:34:17.974Z,6.70
2018-03-25T08:36:45.507Z,6.90
2018-03-25T08:39:13.010Z,7.00
2018-03-25T08:41:40.533Z,7.10
2018-03-25T08:44:08.059Z,7.30
2018-03-25T08:46:35.639Z,7.40
2018-03-25T08:49:03.132Z,7.50
2018-03-25T08:51:30.667Z,7.60
2018-03-25T08:53:58.190Z,7.70
2018-03-25T08:56:25.731Z,7.70
2018-03-25T08:58:53.259Z,7.80
2018-03-25T09:01:20.774Z,8.00
2018-03-25T09:03:48.295Z,8.10
2018-03-25T09:06:15.810Z,8.10
2018-03-25T09:08:44.098Z,8.30
2018-03-25T09:11:12.375Z,8.40
2018-03-25T09:13:40.679Z,8.40
2018-03-25T09:16:08.184Z,8.30
2018-03-25T09:18:35.715Z,8.50
2018-03-25T09:21:03.223Z,8.40
2018-03-25T09:23:31.536Z,8.60
2018-03-25T09:25:59.055Z,8.50
2018-03-25T09:28:27.351Z,8.90
2018-03-25T09:30:55.634Z,9.00
2018-03-25T09:33:23.934Z,9.20
2018-03-25T09:35:51.440Z,9.10
2018-03-25T09:38:18.984Z,9.20
2018-03-25T09:40:47.270Z,9.40
2018-03-25T09:43:15.562Z,9.40
2018-03-25T09:45:43.078Z,9.40
2018-03-25T09:48:10.599Z,9.50
2018-03-25T09:50:38.120Z,9.50
2018-03-25T09:53:05.651Z,9.50
2018-03-25T09:55:33.922Z,9.60
2018-03-25T09:58:02.211Z,9.60
2018-03-25T10:00:29.725Z,9.60
2018-03-25T10:02:59.072Z,9.70
2018-03-25T10:05:26.619Z,9.80
2018-03-25T10:07:54.891Z,9.90
2018-03-25T10:10:23.196Z,9.90
2018-03-25T10:12:50.719Z,9.90
2018-03-25T10:15:19.018Z,10.00
2018-03-25T10:17:47.300Z,10.00
2018-03-25T10:20:15.596Z,10.00
2018-03-25T10:22:43.108Z,9.90
2018-03-25T10:25:10.634Z,10.10
2018-03-25T10:27:38.146Z,10.00
2018-03-25T10:30:06.438Z,9.90
2018-03-25T10:32:33.969Z,9.80
2018-03-25T10:35:01.487Z,9.90
2018-03-25T10:37:28.995Z,10.00
2018-03-25T10:39:57.291Z,10.20
2018-03-25T10:42:25.569Z,10.10
2018-03-25T10:44:53.871Z,10.20
2018-03-25T10:47:21.382Z,10.10
2018-03-25T10:49:48.933Z,10.20
2018-03-25T10:52:16.452Z,10.30
2018-03-25T10:54:43.986Z,10.40
2018-03-25T10:57:12.270Z,10.40
2018-03-25T10:59:39.807Z,10.30
2018-03-25T11:02:08.098Z,10.40
2018-03-25T11:04:36.459Z,10.50
2018-03-25T11:07:03.942Z,10.40
2018-03-25T11:09:32.245Z,10.60
2018-03-25T11:11:59.774Z,10.60
2018-03-25T11:14:28.070Z,10.80
2018-03-25T11:16:55.587Z,10.80
2018-03-25T11:19:23.103Z,10.80
2018-03-25T11:21:50.637Z,10.80
2018-03-25T11:24:18.148Z,10.80
2018-03-25T11:26:45.692Z,10.90
2018-03-25T11:29:14.823Z,11.00
2018-03-25T11:31:42.367Z,10.90
2018-03-25T11:34:09.892Z,10.90
2018-03-25T11:36:37.426Z,10.90
2018-03-25T11:39:05.711Z,11.00
2018-03-25T11:41:34.011Z,11.00
2018-03-25T11:44:01.518Z,10.90
2018-03-25T11:46:29.067Z,11.00
2018-03-25T11:48:56.588Z,10.90
2018-03-25T11:51:24.118Z,10.80
2018-03-25T11:53:52.396Z,10.90
2018-03-25T11:56:20.699Z,10.90
2018-03-25T11:58:48.210Z,10.90
2018-03-25T12:01:15.781Z,11.00
2018-03-25T12:03:43.308Z,11.00
2018-03-25T12:06:10.839Z,10.80
2018-03-25T12:08:38.351Z,10.80
2018-03-25T12:11:05.915Z,10.80
2018-03-25T12:13:33.448Z,10.80
2018-03-25T12:16:00.996Z,10.80
2018-03-25T12:18:28.503Z,10.80
2018-03-25T12:20:56.043Z,10.80
2018-03-25T12:23:23.570Z,10.80
2018-03-25T12:25:51.878Z,10.90
2018-03-25T12:28:19.395Z,10.90
2018-03-25T12:30:46.913Z,11.00
2018-03-25T12:33:14.462Z,11.00
2018-03-25T12:35:41.978Z,11.00
2018-03-25T12:38:09.510Z,11.10
2018-03-25T12:40:37.033Z,11.10
2018-03-25T12:43:04.559Z,11.10
2018-03-25T12:45:32.081Z,11.20
2018-03-25T12:47:59.611Z,11.10
2018-03-25T12:50:27.144Z,11.20
2018-03-25T12:52:54.676Z,11.20
2018-03-25T12:55:22.187Z,11.20
2018-03-25T12:57:50.488Z,11.30
2018-03-25T13:00:17.996Z,11.30
2018-03-25T13:02:45.518Z,11.30
2018-03-25T13:05:13.042Z,11.40
2018-03-25T13:07:41.339Z,11.40
2018-03-25T13:10:08.846Z,11.30
2018-03-25T13:12:36.371Z,11.40
2018-03-25T13:15:03.881Z,11.40
2018-03-25T13:17:31.415Z,11.30
2018-03-25T13:19:58.937Z,11.20
2018-03-25T13:22:26.494Z,11.10
2018-03-25T13:24:53.999Z,11.10
2018-03-25T13:27:21.529Z,11.20
2018-03-25T13:29:49.035Z,11.20
2018-03-25T13:32:16.558Z,11.30
2018-03-25T13:34:44.079Z,11.40
2018-03-25T13:37:11.594Z,11.40
2018-03-25T13:39:39.125Z,11.30
2018-03-25T13:42:06.635Z,11.30
2018-03-25T13:44:34.165Z,11.30
2018-03-25T13:47:01.679Z,11.20
2018-03-25T13:49:44.411Z,11.10
2018-03-25T13:52:11.921Z,11.10
2018-03-25T13:54:39.447Z,11.10
2018-03-25T13:57:06.954Z,11.10
2018-03-25T13:59:35.255Z,11.30
2018-03-25T14:02:03.544Z,11.40
2018-03-25T14:04:31.072Z,11.30
2018-03-25T14:06:59.350Z,11.40
2018-03-25T14:09:26.875Z,11.30
2018-03-25T14:11:54.754Z,11.40
2018-03-25T14:14:22.283Z,11.40
2018-03-25T14:16:49.821Z,11.40
2018-03-25T14:19:18.120Z,11.30
2018-03-25T14:21:45.661Z,11.30
2018-03-25T14:24:13.954Z,11.30
2018-03-25T14:26:41.466Z,11.30
2018-03-25T14:29:09.024Z,11.30
2018-03-25T14:31:36.541Z,11.30
2018-03-25T14:34:04.087Z,11.20
2018-03-25T14:36:31.602Z,11.20
2018-03-25T14:38:59.129Z,11.20
2018-03-25T14:41:26.651Z,11.30
2018-03-25T14:43:54.950Z,11.30
2018-03-25T14:46:22.473Z,11.20
2018-03-25T14:48:50.772Z,11.30
2018-03-25T14:51:19.045Z,11.30
2018-03-25T14:53:46.963Z,11.30
2018-03-25T14:56:14.470Z,11.40
2018-03-25T14:58:42.771Z,11.40
2018-03-25T15:01:10.283Z,11.30
2018-03-25T15:03:38.626Z,11.40
2018-03-25T15:06:06.137Z,11.30
2018-03-25T15:08:34.434Z,11.50
2018-03-25T15:11:02.716Z,11.40
2018-03-25T15:13:31.087Z,11.40
2018-03-25T15:15:58.634Z,11.40
2018-03-25T15:18:26.928Z,11.40
2018-03-25T15:20:54.458Z,11.40
2018-03-25T15:23:21.980Z,11.40
2018-03-25T15:25:49.519Z,11.40
2018-03-25T15:28:17.055Z,11.30
2018-03-25T15:30:45.348Z,11.40
2018-03-25T15:33:12.871Z,11.40
2018-03-25T15:35:40.402Z,11.50
2018-03-25T15:38:07.999Z,11.70
2018-03-25T15:40:35.516Z,11.70
2018-03-25T15:43:03.047Z,11.70
2018-03-25T15:45:30.578Z,11.60
2018-03-25T15:47:58.816Z,11.60
2018-03-25T15:50:26.351Z,11.50
2018-03-25T15:52:53.882Z,11.40
2018-03-25T15:55:21.413Z,11.40
2018-03-25T15:57:48.931Z,11.30
2018-03-25T16:00:16.458Z,11.30
2018-03-25T16:02:43.967Z,11.30
2018-03-25T16:05:11.494Z,11.30
2018-03-25T16:07:39.773Z,11.20
2018-03-25T16:10:08.073Z,11.20
2018-03-25T16:12:35.591Z,11.20
2018-03-25T16:15:03.150Z,11.20
2018-03-25T16:17:30.667Z,11.10
2018-03-25T16:19:58.190Z,11.10
2018-03-25T16:22:26.501Z,11.10
2018-03-25T16:24:54.026Z,11.00
2018-03-25T16:27:22.319Z,11.00
2018-03-25T16:29:52.603Z,10.90
2018-03-25T16:32:20.139Z,10.90
2018-03-25T16:34:47.654Z,10.90
2018-03-25T16:37:15.953Z,10.80
2018-03-25T16:39:43.475Z,10.70
2018-03-25T16:42:11.779Z,10.60
2018-03-25T16:44:40.050Z,10.60
2018-03-25T16:47:08.351Z,10.50
2018-03-25T16:49:35.858Z,10.40
2018-03-25T16:52:03.387Z,10.40
2018-03-25T16:54:30.899Z,10.30
2018-03-25T16:56:59.192Z,10.20
2018-03-25T16:59:27.470Z,10.10
2018-03-25T17:01:54.994Z,10.10
2018-03-25T17:04:22.510Z,10.10
2018-03-25T17:06:50.039Z,10.00
2018-03-25T17:09:18.310Z,9.90
2018-03-25T17:11:46.602Z,9.80
2018-03-25T17:14:14.127Z,9.80
2018-03-25T17:16:41.661Z,9.80
2018-03-25T17:19:09.169Z,9.70
2018-03-25T17:21:37.493Z,9.60
2018-03-25T17:24:05.007Z,9.50
2018-03-25T17:26:33.320Z,9.50
2018-03-25T17:29:00.850Z,9.40
2018-03-25T17:31:29.139Z,9.40
2018-03-25T17:33:57.423Z,9.30
2018-03-25T17:36:24.946Z,9.30
2018-03-25T17:38:52.448Z,9.20
2018-03-25T17:41:19.982Z,9.20
2018-03-25T17:43:48.263Z,9.00
2018-03-25T17:46:16.531Z,9.00
2018-03-25T17:48:45.563Z,8.80
2018-03-25T17:51:13.074Z,8.80
2018-03-25T17:53:40.601Z,8.80
2018-03-25T17:56:08.111Z,8.80
2018-03-25T17:58:36.402Z,8.60
2018-03-25T18:01:04.681Z,8.60
2018-03-25T18:03:32.203Z,8.50
2018-03-25T18:05:59.731Z,8.50
2018-03-25T18:08:27.271Z,8.50
2018-03-25T18:10:54.788Z,8.40
2018-03-25T18:13:22.323Z,8.30
2018-03-25T18:15:49.838Z,8.30
2018-03-25T18:18:18.139Z,8.20
2018-03-25T18:20:56.291Z,8.10
2018-03-25T18:23:13.959Z,8.10
2018-03-25T18:25:41.479Z,8.10
2018-03-25T18:28:09.007Z,8.10
2018-03-25T18:30:36.526Z,8.10
2018-03-25T18:33:04.823Z,8.00
2018-03-25T18:35:32.344Z,7.90
2018-03-25T18:37:59.878Z,8.00
2018-03-25T18:40:27.385Z,7.90
2018-03-25T18:42:54.918Z,7.90
2018-03-25T18:45:22.431Z,7.90
2018-03-25T18:47:49.964Z,7.90
2018-03-25T18:53:20.256Z,7.70
2018-03-25T18:55:47.759Z,7.80
2018-03-25T18:58:15.306Z,7.70
2018-03-25T19:00:42.869Z,7.70
2018-03-25T19:03:11.895Z,7.50
2018-03-25T19:05:39.486Z,7.50
2018-03-25T19:08:07.015Z,7.60
2018-03-25T19:10:34.570Z,7.50
2018-03-25T19:16:27.959Z,7.30
2018-03-25T19:19:04.464Z,7.30
2018-03-25T19:21:31.988Z,7.30
2018-03-25T19:23:59.527Z,7.20
2018-03-25T19:26:27.802Z,7.10
2018-03-25T19:28:56.100Z,7.00
2018-03-25T19:31:23.615Z,7.00
2018-03-25T19:33:51.147Z,7.00
2018-03-25T19:36:18.665Z,7.00
2018-03-25T19:38:46.957Z,6.90
2018-03-25T19:41:14.470Z,6.80
2018-03-25T19:43:41.999Z,6.90
2018-03-25T19:46:09.512Z,6.80
2018-03-25T19:48:37.803Z,6.70
2018-03-25T19:51:06.096Z,6.70
2018-03-25T19:53:33.606Z,6.70
2018-03-25T19:56:01.135Z,6.70
2018-03-25T19:58:28.646Z,6.70
2018-03-25T20:00:56.938Z,6.60
2018-03-25T20:03:24.466Z,6.50
2018-03-25T20:05:51.999Z,6.60
2018-03-25T20:08:19.565Z,6.50
2018-03-25T20:10:47.110Z,6.50
2018-03-25T20:13:14.630Z,6.40
2018-03-25T20:15:42.917Z,6.40
2018-03-25T20:18:11.203Z,6.30
2018-03-25T20:20:38.730Z,6.30
2018-03-25T20:23:06.252Z,6.30
2018-03-25T20:25:33.775Z,6.30
2018-03-25T20:28:01.331Z,6.40
2018-03-25T20:30:28.831Z,6.40
2018-03-25T20:32:56.346Z,6.50
2018-03-25T20:35:24.646Z,6.50
2018-03-25T20:37:52.161Z,6.50
2018-03-25T20:40:19.689Z,6.60
2018-03-25T20:42:47.206Z,6.70
2018-03-25T20:45:14.812Z,6.70
2018-03-25T20:47:42.320Z,6.70
2018-03-25T20:50:10.707Z,6.90
2018-03-25T20:52:39.008Z,6.90
2018-03-25T20:55:06.586Z,6.80
2018-03-25T20:57:34.072Z,6.90
2018-03-25T21:00:01.607Z,6.90
2018-03-25T21:02:29.145Z,6.90
2018-03-25T21:04:56.655Z,6.90
2018-03-25T21:07:24.183Z,6.90
2018-03-25T21:09:51.747Z,6.90
2018-03-25T21:12:19.279Z,6.80
2018-03-25T21:14:46.802Z,6.80
2018-03-25T21:17:14.322Z,6.80
2018-03-25T21:19:41.847Z,6.90
2018-03-25T21:22:09.378Z,6.90
2018-03-25T21:24:36.930Z,6.90
2018-03-25T21:27:04.435Z,6.80
2018-03-25T21:29:32.754Z,6.90
2018-03-25T21:32:00.285Z,6.80
2018-03-25T21:34:27.798Z,6.90
2018-03-25T21:36:55.331Z,6.90
2018-03-25T21:39:22.987Z,6.90
2018-03-25T21:41:50.510Z,6.80
2018-03-25T21:44:18.777Z,6.70
2018-03-25T21:46:47.073Z,6.70
2018-03-25T21:49:14.591Z,6.60
2018-03-25T21:51:42.172Z,6.60
2018-03-25T21:54:09.648Z,6.60
2018-03-25T21:56:37.175Z,6.50
2018-03-25T21:59:04.682Z,6.40
2018-03-25T22:01:32.216Z,6.40
2018-03-25T22:04:00.491Z,6.30
2018-03-25T22:06:28.767Z,6.20
2018-03-25T22:08:57.054Z,6.20
2018-03-25T22:11:25.332Z,6.20
2018-03-25T22:13:52.855Z,6.10
2018-03-25T22:16:20.403Z,6.10
2018-03-25T22:18:59.994Z,6.10
2018-03-25T22:21:27.466Z,6.00
2018-03-25T22:23:54.992Z,5.90
2018-03-25T22:26:22.506Z,5.90
2018-03-25T22:28:50.028Z,5.80
2018-03-25T22:31:18.302Z,5.70
2018-03-25T22:33:46.590Z,5.70
2018-03-25T22:36:14.860Z,5.60
2018-03-25T22:38:43.150Z,5.60
2018-03-25T22:41:11.429Z,5.50
2018-03-25T22:43:38.951Z,5.40
2018-03-25T22:46:06.455Z,5.40
2018-03-25T22:48:33.985Z,5.30
2018-03-25T22:51:02.289Z,5.20
2018-03-25T22:53:30.583Z,5.10
2018-03-25T22:55:58.086Z,5.10
2018-03-25T22:58:25.620Z,5.10
2018-03-25T23:00:53.127Z,5.00
2018-03-25T23:03:21.418Z,4.90
2018-03-25T23:05:49.686Z,4.80
2018-03-25T23:08:17.969Z,4.70
2018-03-25T23:10:46.242Z,4.60
2018-03-25T23:13:14.532Z,4.60
2018-03-25T23:15:42.038Z,4.50
2018-03-25T23:18:09.575Z,4.60
2018-03-25T23:20:37.091Z,4.50
2018-03-25T23:23:05.374Z,4.60
2018-03-25T23:25:33.667Z,4.60
2018-03-25T23:28:01.178Z,4.50
2018-03-25T23:30:28.712Z,4.60
2018-03-25T23:32:56.219Z,4.60
2018-03-25T23:35:24.515Z,4.60
2018-03-25T23:37:52.790Z,4.60
2018-03-25T23:40:21.077Z,4.60
2018-03-25T23:42:49.355Z,4.60
2018-03-25T23:45:17.645Z,4.60
2018-03-25T23:47:45.146Z,4.60
2018-03-25T23:50:12.662Z,4.60
2018-03-25T23:52:40.181Z,4.60
2018-03-25T23:55:07.708Z,4.60
2018-03-25T23:57:35.224Z,4.50
